createdAt,value
2017-05-12T00:00:34.840Z,3.34
2017-05-12T00:03:01.307Z,2.82
2017-05-12T00:05:27.634Z,3.32
2017-05-12T00:07:53.992Z,3.16
2017-05-12T00:10:20.298Z,2.92
2017-05-12T00:12:46.649Z,2.80
2017-05-12T00:15:12.971Z,2.92
2017-05-12T00:17:39.303Z,2.60
2017-05-12T00:20:05.613Z,2.46
2017-05-12T00:22:31.943Z,2.56
2017-05-12T00:24:58.291Z,2.72
2017-05-12T00:27:24.610Z,2.64
2017-05-12T00:29:50.942Z,2.52
2017-05-12T00:32:17.279Z,2.28
2017-05-12T00:34:43.625Z,2.22
2017-05-12T00:37:09.960Z,2.02
2017-05-12T00:39:36.281Z,1.82
2017-05-12T00:42:02.623Z,2.42
2017-05-12T00:44:28.958Z,1.92
2017-05-12T00:46:55.297Z,1.72
2017-05-12T00:49:21.623Z,1.78
2017-05-12T00:51:47.937Z,2.06
2017-05-12T00:54:14.304Z,1.80
2017-05-12T00:56:40.609Z,1.90
2017-05-12T00:59:07.073Z,2.20
2017-05-12T01:01:33.391Z,1.70
2017-05-12T01:03:59.721Z,1.82
2017-05-12T01:06:26.053Z,2.08
2017-05-12T01:08:52.422Z,1.92
2017-05-12T01:11:18.760Z,2.18
2017-05-12T01:13:45.656Z,1.88
2017-05-12T01:16:12.527Z,1.90
2017-05-12T01:18:38.886Z,2.12
2017-05-12T01:21:05.378Z,1.94
2017-05-12T01:23:31.723Z,2.08
2017-05-12T01:25:58.046Z,1.90
2017-05-12T01:28:24.382Z,2.12
2017-05-12T01:30:50.760Z,2.22
2017-05-12T01:33:17.107Z,1.94
2017-05-12T01:35:43.507Z,2.22
2017-05-12T01:38:09.870Z,1.76
2017-05-12T01:40:36.223Z,1.90
2017-05-12T01:43:02.635Z,1.70
2017-05-12T01:45:28.970Z,2.28
2017-05-12T01:47:55.319Z,2.18
2017-05-12T01:50:21.661Z,1.42
2017-05-12T01:52:48.003Z,2.26
2017-05-12T01:55:14.363Z,2.22
2017-05-12T01:57:40.760Z,1.40
2017-05-12T02:00:07.129Z,1.98
2017-05-12T02:02:33.458Z,1.80
2017-05-12T02:04:59.839Z,1.58
2017-05-12T02:07:26.198Z,2.58
2017-05-12T02:09:52.539Z,1.98
2017-05-12T02:12:18.890Z,2.10
2017-05-12T02:14:45.334Z,1.42
2017-05-12T02:17:11.681Z,2.12
2017-05-12T02:19:38.026Z,1.70
2017-05-12T02:22:04.375Z,1.88
2017-05-12T02:24:30.722Z,1.88
2017-05-12T02:26:57.076Z,2.18
2017-05-12T02:29:23.448Z,1.98
2017-05-12T02:31:49.796Z,1.62
2017-05-12T02:34:16.156Z,1.50
2017-05-12T02:36:42.515Z,1.52
2017-05-12T02:39:08.887Z,1.60
2017-05-12T02:41:35.236Z,1.70
2017-05-12T02:44:01.597Z,1.50
2017-05-12T02:46:27.926Z,1.60
2017-05-12T02:48:54.391Z,1.58
2017-05-12T02:51:20.735Z,1.82
2017-05-12T02:53:47.465Z,1.64
2017-05-12T02:56:13.822Z,1.50
2017-05-12T02:58:40.190Z,1.48
2017-05-12T03:01:06.514Z,1.68
2017-05-12T03:03:32.861Z,1.56
2017-05-12T03:05:59.173Z,1.48
2017-05-12T03:08:25.515Z,1.94
2017-05-12T03:10:51.870Z,1.34
2017-05-12T03:13:18.225Z,1.80
2017-05-12T03:15:44.560Z,1.40
2017-05-12T03:18:10.909Z,1.64
2017-05-12T03:20:37.632Z,1.60
2017-05-12T03:23:04.024Z,1.44
2017-05-12T03:25:30.381Z,1.76
2017-05-12T03:27:56.741Z,1.50
2017-05-12T03:30:23.126Z,1.68
2017-05-12T03:32:49.486Z,2.24
2017-05-12T03:35:15.836Z,1.64
2017-05-12T03:37:42.166Z,1.72
2017-05-12T03:40:08.502Z,1.68
2017-05-12T03:42:34.850Z,1.60
2017-05-12T03:45:01.190Z,1.40
2017-05-12T03:47:27.510Z,1.50
2017-05-12T03:49:53.863Z,1.80
2017-05-12T03:52:20.228Z,1.98
2017-05-12T03:54:46.583Z,1.48
2017-05-12T03:57:12.952Z,1.80
2017-05-12T03:59:39.316Z,1.78
2017-05-12T04:02:05.673Z,1.76
2017-05-12T04:04:32.008Z,1.88
2017-05-12T04:06:58.352Z,1.64
2017-05-12T04:09:24.737Z,1.60
2017-05-12T04:11:51.153Z,1.70
2017-05-12T04:14:17.487Z,1.60
2017-05-12T04:19:12.827Z,1.70
2017-05-12T04:21:39.183Z,1.80
2017-05-12T04:24:05.519Z,1.98
2017-05-12T04:26:31.892Z,1.80
2017-05-12T04:28:58.227Z,1.68
2017-05-12T04:31:24.574Z,1.46
2017-05-12T04:33:50.914Z,1.92
2017-05-12T04:36:17.277Z,1.80
2017-05-12T04:38:43.609Z,1.44
2017-05-12T04:41:09.957Z,1.88
2017-05-12T04:43:36.308Z,2.18
2017-05-12T04:46:02.651Z,2.28
2017-05-12T04:48:29.009Z,2.22
2017-05-12T04:50:55.366Z,2.08
2017-05-12T04:53:21.699Z,2.12
2017-05-12T04:55:48.052Z,2.02
2017-05-12T04:58:14.430Z,2.00
2017-05-12T05:00:40.766Z,2.36
2017-05-12T05:03:07.102Z,2.48
2017-05-12T05:05:33.435Z,2.16
2017-05-12T05:07:59.772Z,2.14
2017-05-12T05:10:26.172Z,2.46
2017-05-12T05:12:52.557Z,2.06
2017-05-12T05:15:18.872Z,2.34
2017-05-12T05:17:45.207Z,2.10
2017-05-12T05:20:11.573Z,2.24
2017-05-12T05:22:37.892Z,2.06
2017-05-12T05:25:04.233Z,1.76
2017-05-12T05:27:30.575Z,2.34
2017-05-12T05:29:56.973Z,2.22
2017-05-12T05:32:23.342Z,2.00
2017-05-12T05:34:49.688Z,2.16
2017-05-12T05:37:16.064Z,2.58
2017-05-12T05:39:42.396Z,2.22
2017-05-12T05:42:08.760Z,1.90
2017-05-12T05:44:35.114Z,2.44
2017-05-12T05:47:01.473Z,2.42
2017-05-12T05:49:27.825Z,2.58
2017-05-12T05:51:54.167Z,2.84
2017-05-12T05:54:20.509Z,1.96
2017-05-12T05:56:46.867Z,2.66
2017-05-12T05:59:13.217Z,2.18
2017-05-12T06:01:39.594Z,2.60
2017-05-12T06:04:05.909Z,2.20
2017-05-12T06:06:32.273Z,2.00
2017-05-12T06:08:58.612Z,2.56
2017-05-12T06:11:24.966Z,1.86
2017-05-12T06:13:51.327Z,2.14
2017-05-12T06:16:17.662Z,2.56
2017-05-12T06:18:43.998Z,2.40
2017-05-12T06:21:10.369Z,2.42
2017-05-12T06:23:36.692Z,2.32
2017-05-12T06:26:03.045Z,2.26
2017-05-12T06:28:29.390Z,2.38
2017-05-12T06:30:55.733Z,2.30
2017-05-12T06:33:22.079Z,2.30
2017-05-12T06:35:48.457Z,2.40
2017-05-12T06:38:14.795Z,2.36
2017-05-12T06:40:41.129Z,2.44
2017-05-12T06:43:07.451Z,2.86
2017-05-12T06:45:33.783Z,2.28
2017-05-12T06:48:00.129Z,2.34
2017-05-12T06:50:26.468Z,2.64
2017-05-12T06:52:52.829Z,2.70
2017-05-12T06:55:19.220Z,2.50
2017-05-12T06:57:45.565Z,2.74
2017-05-12T07:00:11.936Z,3.16
2017-05-12T07:02:38.291Z,3.00
2017-05-12T07:05:04.643Z,2.98
2017-05-12T07:07:30.987Z,3.90
2017-05-12T07:09:57.348Z,4.58
2017-05-12T07:12:23.694Z,3.90
2017-05-12T07:14:50.025Z,3.32
2017-05-12T07:17:16.391Z,3.08
2017-05-12T07:19:42.754Z,3.32
2017-05-12T07:22:09.102Z,3.06
2017-05-12T07:24:35.442Z,3.06
2017-05-12T07:27:01.780Z,3.20
2017-05-12T07:29:28.156Z,2.92
2017-05-12T07:31:54.491Z,3.20
2017-05-12T07:34:20.823Z,3.06
2017-05-12T07:36:47.185Z,2.62
2017-05-12T07:39:13.566Z,3.00
2017-05-12T07:41:39.914Z,3.30
2017-05-12T07:44:06.285Z,3.22
2017-05-12T07:46:32.653Z,2.80
2017-05-12T07:48:58.963Z,2.76
2017-05-12T07:51:25.318Z,3.24
2017-05-12T07:53:51.663Z,2.86
2017-05-12T07:56:18.006Z,2.66
2017-05-12T07:58:44.338Z,2.70
2017-05-12T08:01:10.721Z,2.92
2017-05-12T08:03:37.061Z,3.44
2017-05-12T08:06:03.392Z,2.80
2017-05-12T08:08:29.741Z,2.86
2017-05-12T08:10:56.185Z,2.68
2017-05-12T08:13:22.528Z,2.62
2017-05-12T08:15:48.874Z,2.66
2017-05-12T08:18:15.244Z,2.84
2017-05-12T08:20:41.574Z,2.60
2017-05-12T08:23:07.891Z,2.92
2017-05-12T08:25:34.618Z,3.24
2017-05-12T08:28:00.980Z,3.54
2017-05-12T08:30:27.313Z,3.24
2017-05-12T08:32:53.677Z,3.18
2017-05-12T08:35:20.039Z,3.48
2017-05-12T08:37:46.411Z,2.80
2017-05-12T08:40:12.757Z,3.22
2017-05-12T08:42:39.103Z,3.50
2017-05-12T08:45:05.489Z,3.14
2017-05-12T08:47:31.956Z,2.78
2017-05-12T08:49:58.331Z,3.28
2017-05-12T08:52:24.663Z,3.14
2017-05-12T08:54:51.010Z,3.50
2017-05-12T08:57:17.354Z,2.92
2017-05-12T08:59:43.697Z,2.84
2017-05-12T09:02:10.044Z,2.98
2017-05-12T09:04:36.403Z,3.30
2017-05-12T09:07:02.749Z,2.60
2017-05-12T09:09:29.118Z,2.84
2017-05-12T09:11:55.488Z,3.40
2017-05-12T09:14:21.828Z,3.26
2017-05-12T09:16:48.179Z,2.96
2017-05-12T09:19:14.499Z,3.04
2017-05-12T09:21:40.848Z,3.00
2017-05-12T09:24:07.267Z,3.14
2017-05-12T09:26:33.620Z,3.06
2017-05-12T09:28:59.954Z,2.88
2017-05-12T09:31:26.295Z,3.52
2017-05-12T09:33:52.677Z,2.60
2017-05-12T09:36:19.006Z,2.74
2017-05-12T09:38:45.366Z,2.36
2017-05-12T09:41:11.702Z,2.54
2017-05-12T09:43:38.057Z,2.84
2017-05-12T09:46:04.421Z,2.86
2017-05-12T09:48:30.778Z,3.14
2017-05-12T09:50:57.122Z,2.76
2017-05-12T09:53:23.472Z,2.86
2017-05-12T09:55:49.845Z,2.60
2017-05-12T09:58:16.191Z,2.68
2017-05-12T10:00:42.574Z,3.28
2017-05-12T10:03:08.963Z,3.16
2017-05-12T10:05:35.332Z,3.72
2017-05-12T10:08:01.690Z,3.00
2017-05-12T10:10:28.025Z,3.34
2017-05-12T10:12:54.347Z,3.74
2017-05-12T10:15:20.678Z,4.86
2017-05-12T10:17:47.037Z,4.12
2017-05-12T10:20:13.370Z,3.80
2017-05-12T10:22:39.715Z,3.48
2017-05-12T10:25:06.032Z,3.98
2017-05-12T10:27:32.377Z,3.62
2017-05-12T10:29:58.726Z,3.42
2017-05-12T10:32:25.093Z,3.46
2017-05-12T10:34:51.418Z,2.76
2017-05-12T10:37:17.790Z,2.90
2017-05-12T10:39:44.180Z,2.70
2017-05-12T10:42:10.563Z,3.02
2017-05-12T10:44:36.910Z,2.94
2017-05-12T10:47:03.243Z,3.08
2017-05-12T10:49:29.579Z,3.42
2017-05-12T10:51:55.941Z,2.82
2017-05-12T10:54:22.284Z,3.62
2017-05-12T10:56:48.726Z,3.12
2017-05-12T10:59:15.088Z,2.98
2017-05-12T11:01:41.441Z,3.40
2017-05-12T11:04:07.791Z,3.02
2017-05-12T11:06:34.145Z,3.08
2017-05-12T11:09:00.489Z,3.00
2017-05-12T11:11:26.842Z,3.26
2017-05-12T11:13:53.171Z,2.90
2017-05-12T11:16:19.502Z,2.48
2017-05-12T11:18:45.831Z,2.76
2017-05-12T11:21:12.217Z,2.80
2017-05-12T11:23:38.563Z,2.68
2017-05-12T11:26:04.891Z,2.56
2017-05-12T11:28:31.232Z,2.90
2017-05-12T11:30:57.549Z,2.36
2017-05-12T11:33:23.904Z,2.90
2017-05-12T11:35:50.234Z,2.96
2017-05-12T11:38:16.599Z,3.36
2017-05-12T11:40:42.947Z,2.70
2017-05-12T11:43:09.331Z,2.92
2017-05-12T11:45:35.712Z,2.12
2017-05-12T11:48:02.080Z,3.58
2017-05-12T11:50:28.439Z,4.84
2017-05-12T11:52:54.780Z,4.90
2017-05-12T11:55:21.143Z,4.92
2017-05-12T11:57:47.506Z,4.20
2017-05-12T12:00:13.905Z,4.10
2017-05-12T12:02:40.261Z,4.10
2017-05-12T12:05:06.622Z,3.90
2017-05-12T12:07:33.005Z,4.30
2017-05-12T12:09:59.360Z,3.96
2017-05-12T12:12:25.757Z,4.56
2017-05-12T12:14:52.100Z,4.18
2017-05-12T12:17:18.448Z,3.78
2017-05-12T12:19:44.797Z,5.00
2017-05-12T12:22:11.195Z,5.06
2017-05-12T12:24:37.527Z,4.38
2017-05-12T12:27:03.865Z,4.90
2017-05-12T12:29:30.241Z,5.22
2017-05-12T12:31:56.649Z,4.10
2017-05-12T12:34:22.970Z,4.24
2017-05-12T12:36:49.309Z,5.28
2017-05-12T12:39:15.712Z,5.12
2017-05-12T12:41:42.106Z,4.92
2017-05-12T12:44:08.440Z,4.90
2017-05-12T12:46:34.777Z,5.06
2017-05-12T12:49:01.114Z,5.12
2017-05-12T12:51:27.502Z,5.00
2017-05-12T12:53:53.847Z,5.12
2017-05-12T12:56:20.206Z,4.82
2017-05-12T12:58:46.550Z,4.92
2017-05-12T13:01:12.921Z,4.40
2017-05-12T13:03:39.278Z,3.28
2017-05-12T13:06:05.712Z,3.82
2017-05-12T13:08:32.073Z,3.84
2017-05-12T13:10:58.432Z,3.10
2017-05-12T13:13:24.763Z,3.64
2017-05-12T13:15:51.087Z,3.72
2017-05-12T13:18:17.444Z,3.60
2017-05-12T13:20:43.778Z,3.96
2017-05-12T13:23:10.110Z,4.08
2017-05-12T13:25:36.445Z,3.52
2017-05-12T13:28:02.784Z,3.00
2017-05-12T13:30:29.127Z,3.14
2017-05-12T13:32:55.496Z,2.68
2017-05-12T13:35:21.866Z,2.56
2017-05-12T13:37:48.281Z,2.90
2017-05-12T13:40:16.815Z,2.14
2017-05-12T13:42:43.189Z,2.20
2017-05-12T13:45:09.525Z,2.28
2017-05-12T13:47:35.859Z,1.88
2017-05-12T13:50:02.229Z,1.90
2017-05-12T13:52:28.605Z,2.08
2017-05-12T13:54:54.961Z,2.06
2017-05-12T13:57:21.307Z,1.64
2017-05-12T13:59:47.639Z,1.82
2017-05-12T14:02:13.970Z,2.20
2017-05-12T14:04:40.336Z,1.90
2017-05-12T14:07:06.674Z,2.04
2017-05-12T14:09:33.002Z,1.90
2017-05-12T14:11:59.356Z,2.18
2017-05-12T14:14:25.687Z,1.90
2017-05-12T14:16:52.036Z,1.70
2017-05-12T14:19:18.381Z,1.94
2017-05-12T14:21:45.464Z,2.06
2017-05-12T14:24:11.841Z,2.62
2017-05-12T14:26:38.184Z,3.56
2017-05-12T14:29:04.532Z,3.40
2017-05-12T14:31:30.906Z,3.30
2017-05-12T14:33:57.235Z,2.62
2017-05-12T14:36:23.547Z,2.38
2017-05-12T14:38:49.928Z,2.70
2017-05-12T14:41:16.317Z,2.84
2017-05-12T14:43:42.650Z,2.34
2017-05-12T14:46:09.017Z,2.24
2017-05-12T14:48:35.404Z,2.46
2017-05-12T14:51:01.752Z,2.20
2017-05-12T14:53:28.116Z,2.60
2017-05-12T14:55:54.506Z,2.44
2017-05-12T14:58:20.923Z,2.58
2017-05-12T15:00:47.271Z,2.22
2017-05-12T15:03:13.628Z,2.12
2017-05-12T15:05:40.010Z,1.68
2017-05-12T15:08:06.346Z,1.84
2017-05-12T15:10:32.667Z,1.64
2017-05-12T15:12:59.056Z,1.42
2017-05-12T15:15:25.422Z,1.24
2017-05-12T15:17:51.771Z,1.44
2017-05-12T15:20:18.398Z,1.02
2017-05-12T15:22:45.336Z,1.56
2017-05-12T15:25:11.684Z,1.38
2017-05-12T15:27:38.068Z,1.36
2017-05-12T15:30:04.394Z,1.24
2017-05-12T15:32:31.254Z,1.44
2017-05-12T15:34:57.554Z,1.36
2017-05-12T15:37:23.930Z,1.24
2017-05-12T15:39:50.260Z,1.08
2017-05-12T15:42:16.614Z,1.18
2017-05-12T15:44:42.981Z,1.14
2017-05-12T15:47:09.316Z,1.36
2017-05-12T15:49:35.671Z,0.90
2017-05-12T15:52:02.058Z,1.22
2017-05-12T15:54:28.422Z,1.24
2017-05-12T15:56:54.729Z,1.20
2017-05-12T15:59:21.085Z,1.18
2017-05-12T16:01:47.429Z,0.86
2017-05-12T16:04:13.763Z,1.00
2017-05-12T16:06:40.089Z,0.90
2017-05-12T16:09:06.401Z,1.14
2017-05-12T16:11:32.743Z,1.10
2017-05-12T16:13:59.094Z,0.90
2017-05-12T16:16:25.433Z,1.08
2017-05-12T16:18:51.747Z,1.16
2017-05-12T16:21:18.132Z,1.22
2017-05-12T16:23:44.480Z,1.10
2017-05-12T16:26:10.828Z,0.84
2017-05-12T16:28:37.204Z,1.24
2017-05-12T16:31:03.542Z,1.24
2017-05-12T16:33:29.885Z,0.82
2017-05-12T16:35:57.130Z,1.06
2017-05-12T16:38:23.470Z,1.12
2017-05-12T16:40:49.844Z,0.80
2017-05-12T16:43:16.159Z,1.12
2017-05-12T16:45:42.511Z,1.04
2017-05-12T16:48:08.862Z,1.28
2017-05-12T16:50:35.235Z,0.80
2017-05-12T16:53:01.596Z,0.80
2017-05-12T16:55:27.910Z,1.00
2017-05-12T16:57:54.244Z,1.28
2017-05-12T17:00:20.663Z,1.00
2017-05-12T17:02:47.022Z,1.02
2017-05-12T17:05:13.490Z,0.84
2017-05-12T17:07:39.822Z,0.84
2017-05-12T17:10:06.162Z,0.90
2017-05-12T17:12:32.517Z,1.06
2017-05-12T17:14:58.873Z,1.10
2017-05-12T17:17:25.185Z,1.12
2017-05-12T17:19:51.567Z,1.02
2017-05-12T17:22:17.906Z,1.00
2017-05-12T17:24:44.268Z,0.90
2017-05-12T17:27:10.607Z,0.92
2017-05-12T17:29:36.948Z,0.94
2017-05-12T17:32:05.122Z,1.00
2017-05-12T17:34:32.043Z,1.06
2017-05-12T17:36:58.834Z,1.18
2017-05-12T17:39:25.928Z,0.88
2017-05-12T17:41:52.945Z,1.14
2017-05-12T17:44:19.378Z,1.00
2017-05-12T17:46:47.273Z,1.28
2017-05-12T17:49:15.391Z,0.82
2017-05-12T17:51:41.753Z,1.14
2017-05-12T17:54:08.583Z,0.90
2017-05-12T17:56:34.969Z,1.10
2017-05-12T17:59:01.997Z,0.88
2017-05-12T18:01:28.314Z,1.04
2017-05-12T18:03:55.279Z,0.98
2017-05-12T18:06:21.631Z,1.02
2017-05-12T18:08:48.617Z,1.20
2017-05-12T18:11:15.043Z,1.58
2017-05-12T18:13:41.730Z,1.24
2017-05-12T18:16:08.090Z,1.06
2017-05-12T18:18:34.453Z,1.42
2017-05-12T18:21:00.814Z,1.14
2017-05-12T18:23:27.158Z,1.36
2017-05-12T18:25:53.512Z,1.34
2017-05-12T18:28:19.880Z,1.16
2017-05-12T18:30:46.199Z,1.10
2017-05-12T18:33:12.537Z,0.88
2017-05-12T18:35:39.278Z,1.24
2017-05-12T18:38:05.612Z,1.30
2017-05-12T18:40:31.965Z,1.20
2017-05-12T18:42:59.157Z,1.18
2017-05-12T18:45:25.641Z,1.52
2017-05-12T18:47:52.049Z,1.22
2017-05-12T18:50:23.796Z,0.96
2017-05-12T18:52:51.097Z,1.32
2017-05-12T18:55:18.718Z,1.44
2017-05-12T18:57:45.654Z,1.52
2017-05-12T19:00:12.493Z,1.40
2017-05-12T19:02:38.849Z,1.20
2017-05-12T19:05:05.376Z,1.30
2017-05-12T19:07:32.090Z,1.78
2017-05-12T19:10:05.052Z,2.00
2017-05-12T19:12:34.483Z,3.52
2017-05-12T19:15:06.189Z,2.20
2017-05-12T19:17:37.945Z,2.70
2017-05-12T19:20:04.298Z,2.48
2017-05-12T19:22:31.245Z,2.18
2017-05-12T19:24:58.207Z,4.48
2017-05-12T19:27:30.941Z,3.26
2017-05-12T19:29:58.337Z,2.20
2017-05-12T19:32:24.967Z,1.98
2017-05-12T19:34:51.582Z,1.98
2017-05-12T19:37:18.325Z,2.38
2017-05-12T19:39:50.012Z,2.14
2017-05-12T19:42:16.768Z,1.90
2017-05-12T19:44:48.600Z,4.60
2017-05-12T19:47:15.475Z,3.92
2017-05-12T19:49:42.374Z,2.88
2017-05-12T19:52:10.001Z,2.60
2017-05-12T19:54:36.463Z,2.66
2017-05-12T19:57:03.142Z,2.68
2017-05-12T19:59:30.591Z,2.52
2017-05-12T20:01:58.121Z,2.34
2017-05-12T20:04:25.057Z,2.20
2017-05-12T20:06:52.397Z,2.16
2017-05-12T20:09:19.562Z,2.72
2017-05-12T20:11:46.078Z,2.72
2017-05-12T20:14:12.411Z,3.50
2017-05-12T20:16:38.912Z,11.86
2017-05-12T20:19:05.507Z,4.04
2017-05-12T20:21:31.872Z,3.80
2017-05-12T20:24:05.714Z,3.48
2017-05-12T20:26:33.125Z,3.16
2017-05-12T20:29:00.270Z,3.34
2017-05-12T20:31:27.598Z,5.50
2017-05-12T20:33:54.037Z,3.32
2017-05-12T20:36:20.915Z,4.20
2017-05-12T20:38:48.159Z,2.70
2017-05-12T20:41:20.581Z,2.52
2017-05-12T20:43:50.118Z,2.36
2017-05-12T20:46:19.525Z,2.40
2017-05-12T20:48:46.521Z,2.44
2017-05-12T20:51:13.935Z,4.14
2017-05-12T20:53:47.616Z,3.00
2017-05-12T20:56:13.957Z,2.34
2017-05-12T20:58:41.283Z,2.40
2017-05-12T21:01:13.840Z,2.84
2017-05-12T21:03:41.183Z,2.42
2017-05-12T21:06:07.888Z,1.86
2017-05-12T21:08:39.241Z,1.80
2017-05-12T21:11:11.267Z,1.70
2017-05-12T21:13:37.653Z,3.20
2017-05-12T21:16:11.158Z,1.50
2017-05-12T21:18:37.694Z,2.50
2017-05-12T21:21:09.692Z,1.56
2017-05-12T21:23:37.208Z,1.20
2017-05-12T21:26:04.386Z,1.40
2017-05-12T21:28:30.808Z,1.48
2017-05-12T21:31:03.163Z,1.42
2017-05-12T21:33:29.589Z,1.40
2017-05-12T21:35:56.197Z,1.24
2017-05-12T21:38:28.971Z,1.58
2017-05-12T21:40:55.832Z,1.46
2017-05-12T21:43:22.582Z,1.82
2017-05-12T21:45:48.929Z,1.30
2017-05-12T21:48:15.262Z,1.52
2017-05-12T21:50:41.866Z,1.50
2017-05-12T21:53:09.364Z,1.38
2017-05-12T21:55:42.942Z,1.80
2017-05-12T21:58:12.309Z,1.74
2017-05-12T22:00:43.930Z,2.08
2017-05-12T22:03:10.470Z,3.12
2017-05-12T22:05:36.962Z,2.38
2017-05-12T22:08:03.325Z,2.00
2017-05-12T22:10:30.632Z,2.20
2017-05-12T22:12:57.918Z,3.16
2017-05-12T22:15:29.720Z,3.90
2017-05-12T22:17:56.564Z,1.66
2017-05-12T22:20:24.091Z,2.32
2017-05-12T22:22:51.442Z,4.08
2017-05-12T22:25:17.829Z,2.54
2017-05-12T22:27:45.298Z,3.30
2017-05-12T22:30:12.108Z,4.48
2017-05-12T22:32:38.556Z,2.80
2017-05-12T22:35:04.978Z,2.32
2017-05-12T22:37:31.377Z,2.30
2017-05-12T22:39:57.868Z,4.34
2017-05-12T22:42:27.278Z,2.50
2017-05-12T22:44:58.931Z,3.54
2017-05-12T22:47:31.166Z,2.40
2017-05-12T22:50:00.529Z,3.00
2017-05-12T22:52:26.858Z,3.20
2017-05-12T22:54:53.619Z,3.22
2017-05-12T22:57:19.989Z,3.12
2017-05-12T22:59:47.643Z,2.58
2017-05-12T23:02:14.395Z,3.10
2017-05-12T23:04:42.174Z,3.02
2017-05-12T23:07:09.427Z,3.72
2017-05-12T23:09:36.818Z,3.48
2017-05-12T23:12:03.535Z,3.48
2017-05-12T23:14:29.883Z,3.28
2017-05-12T23:16:56.544Z,3.54
2017-05-12T23:19:24.402Z,3.92
2017-05-12T23:21:56.159Z,3.52
2017-05-12T23:24:24.362Z,3.58
2017-05-12T23:26:52.064Z,3.56
2017-05-12T23:29:18.529Z,3.54
2017-05-12T23:31:51.193Z,2.98
2017-05-12T23:34:17.656Z,3.40
2017-05-12T23:36:49.700Z,3.32
2017-05-12T23:39:16.565Z,3.50
2017-05-12T23:41:48.011Z,5.16
2017-05-12T23:44:14.534Z,7.22
2017-05-12T23:46:41.979Z,6.02
2017-05-12T23:49:08.813Z,4.52
2017-05-12T23:51:35.168Z,4.50
2017-05-12T23:54:06.976Z,4.64
2017-05-12T23:56:38.717Z,4.52
2017-05-12T23:59:10.655Z,5.62
